메인 페이지
METAR-TAF:

METAR-TAF

공항 :

Guymon, 오클라호마, 미국

위도: 36-40-54N, 경도: 101-30-19W, 고도: 952m

현재 날씨관측

예보는 59분 전, 22:53시(UTC)에 발표되었습니다.
서남서20kt, 순간 최대 풍속 34kt
온도 34°C
습도 19%
기압 1012 hPa
시정: 16.1km
맑음

METAR: KGUY 132253Z AUTO 24020G34KT 10SM CLR 34/07 A2988 RMK AO2 PK WND 24034/2244 LTG DSNT NE AND SW SLP064 T03390072

시각: 18:52 (23:52 UTC)

예보

예보는 32분 전, 23:20시(UTC)에 발표되었습니다.
예보 대상 시간: 14일 00시부터 14일 24시까지 (UTC)
남남서20kt, 순간 최대 풍속 30kt
시정: 10km
고도 25000ft 상공 구름 많음
14일 0200시부터 (UTC)
남남동13kt
시정: 10km
고도 25000ft 상공 구름 보통
14일 1000시부터 (UTC)
여러 방향의 바람 6kt
시정: 10km
고도 25000ft 상공 구름 조금
14일 1700시부터 (UTC)
남동13kt, 순간 최대 풍속 21kt
시정: 10km
고도 20000ft 상공 구름 보통

TAF: KGUY 132320Z 1400/1424 21020G30KT P6SM BKN250 FM140200 16013KT P6SM SCT250 FM141000 VRB06KT P6SM FEW250 FM141700 14013G21KT P6SM SCT200

4,000개 이상의 공항 관측 자료 및 예보 (METAR 및 TAF 보고).

지도상에서 검색 가능한 기상관측소가 노란 점과 빨간 점으로 표시되어 있습니다.

기상관측소 명을 보려면 표시 위로 마우스를 이동하세요.

날씨 관측과 예보를 보려면 클릭하세요.

지도 변경 : 확대하려면 엑스 표시가 있는 녹색 버튼, 축소하려면 빼기 표시가 있는 녹색 버튼, 다음 페이지의 지도를 보려면 녹색 화살표를 클릭하세요.


METAR-TAF: